sensor_id;sensor_type;location;lat;lon;timestamp;P1;durP1;ratioP1;P2;durP2;ratioP2
79693;SDS011;69165;52.714;13.200;2023-04-15T05:02:08;107.27;;;35.20;;
79693;SDS011;69165;52.714;13.200;2023-04-15T05:04:09;102.03;;;35.20;;
79693;SDS011;69165;52.714;13.200;2023-04-15T05:06:11;109.50;;;36.73;;
79693;SDS011;69165;52.714;13.200;2023-04-15T05:08:13;110.00;;;35.63;;
79693;SDS011;69165;52.714;13.200;2023-04-15T05:10:14;92.50;;;37.00;;
79693;SDS011;69165;52.714;13.200;2023-04-15T05:12:16;96.13;;;33.43;;
79693;SDS011;69165;52.714;13.200;2023-04-15T05:14:18;94.67;;;34.93;;
79693;SDS011;69165;52.714;13.200;2023-04-15T05:16:20;96.53;;;35.30;;
79693;SDS011;69165;52.714;13.200;2023-04-15T05:18:22;104.83;;;35.40;;
79693;SDS011;69165;52.714;13.200;2023-04-15T05:20:25;93.77;;;35.43;;
79693;SDS011;69165;52.714;13.200;2023-04-15T05:22:27;102.13;;;35.60;;
79693;SDS011;69165;52.714;13.200;2023-04-15T05:24:29;103.27;;;34.17;;
79693;SDS011;69165;52.714;13.200;2023-04-15T05:26:30;91.63;;;33.53;;
79693;SDS011;69165;52.714;13.200;2023-04-15T05:28:32;91.17;;;34.17;;
79693;SDS011;69165;52.714;13.200;2023-04-15T05:30:33;97.33;;;33.20;;
79693;SDS011;69165;52.714;13.200;2023-04-15T05:32:35;89.07;;;32.63;;
79693;SDS011;69165;52.714;13.200;2023-04-15T05:34:37;100.00;;;35.03;;
79693;SDS011;69165;52.714;13.200;2023-04-15T05:36:38;85.13;;;34.40;;
79693;SDS011;69165;52.714;13.200;2023-04-15T05:38:40;76.83;;;30.73;;
79693;SDS011;69165;52.714;13.200;2023-04-15T05:40:41;79.87;;;29.80;;
79693;SDS011;69165;52.714;13.200;2023-04-15T05:42:43;88.70;;;32.37;;
79693;SDS011;69165;52.714;13.200;2023-04-15T05:44:45;82.57;;;32.40;;
79693;SDS011;69165;52.714;13.200;2023-04-15T05:46:48;82.03;;;32.07;;
79693;SDS011;69165;52.714;13.200;2023-04-15T05:48:49;87.37;;;31.80;;
79693;SDS011;69165;52.714;13.200;2023-04-15T05:50:51;74.17;;;31.90;;
79693;SDS011;69165;52.714;13.200;2023-04-15T05:55:11;77.87;;;31.50;;
79693;SDS011;69165;52.714;13.200;2023-04-15T05:57:13;71.53;;;30.60;;
79693;SDS011;69165;52.714;13.200;2023-04-15T05:59:15;78.30;;;32.93;;
79693;SDS011;69165;52.714;13.200;2023-04-15T06:01:17;84.10;;;30.93;;
79693;SDS011;69165;52.714;13.200;2023-04-15T06:03:19;67.77;;;28.33;;
79693;SDS011;69165;52.714;13.200;2023-04-15T06:05:21;71.10;;;28.33;;
79693;SDS011;69165;52.714;13.200;2023-04-15T06:07:22;72.53;;;28.93;;
79693;SDS011;69165;52.714;13.200;2023-04-15T06:09:24;78.97;;;27.87;;
79693;SDS011;69165;52.714;13.200;2023-04-15T06:11:26;68.77;;;28.50;;
79693;SDS011;69165;52.714;13.200;2023-04-15T06:13:29;74.03;;;28.37;;
79693;SDS011;69165;52.714;13.200;2023-04-15T06:15:30;57.07;;;27.33;;
79693;SDS011;69165;52.714;13.200;2023-04-15T06:17:32;69.70;;;27.60;;
79693;SDS011;69165;52.714;13.200;2023-04-15T06:19:34;60.13;;;27.17;;
79693;SDS011;69165;52.714;13.200;2023-04-15T06:21:35;58.93;;;26.83;;
79693;SDS011;69165;52.714;13.200;2023-04-15T06:23:37;61.07;;;28.13;;
79693;SDS011;69165;52.714;13.200;2023-04-15T06:25:38;63.90;;;27.40;;
79693;SDS011;69165;52.714;13.200;2023-04-15T06:27:41;59.33;;;26.33;;
79693;SDS011;69165;52.714;13.200;2023-04-15T06:29:42;61.83;;;27.00;;
79693;SDS011;69165;52.714;13.200;2023-04-15T06:31:46;56.40;;;26.37;;
79693;SDS011;69165;52.714;13.200;2023-04-15T06:33:46;55.27;;;25.50;;
79693;SDS011;69165;52.714;13.200;2023-04-15T06:35:48;49.27;;;24.50;;
79693;SDS011;69165;52.714;13.200;2023-04-15T06:37:50;62.87;;;26.40;;
79693;SDS011;69165;52.714;13.200;2023-04-15T06:39:52;76.50;;;28.40;;
79693;SDS011;69165;52.714;13.200;2023-04-15T06:41:54;55.43;;;24.17;;
79693;SDS011;69165;52.714;13.200;2023-04-15T06:43:55;56.47;;;26.40;;
79693;SDS011;69165;52.714;13.200;2023-04-15T06:45:57;63.87;;;26.23;;
79693;SDS011;69165;52.714;13.200;2023-04-15T06:47:58;49.70;;;25.27;;
79693;SDS011;69165;52.714;13.200;2023-04-15T06:50:01;59.20;;;23.47;;
79693;SDS011;69165;52.714;13.200;2023-04-15T06:52:03;61.47;;;25.97;;
79693;SDS011;69165;52.714;13.200;2023-04-15T06:54:05;51.73;;;23.30;;
79693;SDS011;69165;52.714;13.200;2023-04-15T06:56:08;49.27;;;23.03;;
79693;SDS011;69165;52.714;13.200;2023-04-15T06:58:09;44.97;;;23.17;;
79693;SDS011;69165;52.714;13.200;2023-04-15T07:00:11;44.43;;;22.10;;
79693;SDS011;69165;52.714;13.200;2023-04-15T07:02:13;44.73;;;22.83;;
79693;SDS011;69165;52.714;13.200;2023-04-15T07:04:16;39.60;;;21.23;;
79693;SDS011;69165;52.714;13.200;2023-04-15T07:06:17;38.70;;;21.43;;
79693;SDS011;69165;52.714;13.200;2023-04-15T07:08:20;36.90;;;21.33;;
79693;SDS011;69165;52.714;13.200;2023-04-15T07:10:21;43.07;;;22.97;;
79693;SDS011;69165;52.714;13.200;2023-04-15T07:12:24;41.50;;;22.27;;
79693;SDS011;69165;52.714;13.200;2023-04-15T07:14:25;45.33;;;21.40;;
79693;SDS011;69165;52.714;13.200;2023-04-15T07:16:28;44.03;;;20.57;;
79693;SDS011;69165;52.714;13.200;2023-04-15T07:18:29;40.20;;;22.37;;
79693;SDS011;69165;52.714;13.200;2023-04-15T07:20:31;43.00;;;20.80;;
79693;SDS011;69165;52.714;13.200;2023-04-15T07:22:32;37.67;;;19.87;;
79693;SDS011;69165;52.714;13.200;2023-04-15T07:24:35;39.57;;;19.83;;
79693;SDS011;69165;52.714;13.200;2023-04-15T07:26:37;36.63;;;20.00;;
79693;SDS011;69165;52.714;13.200;2023-04-15T07:28:39;34.97;;;17.97;;
79693;SDS011;69165;52.714;13.200;2023-04-15T07:30:40;33.53;;;18.63;;
79693;SDS011;69165;52.714;13.200;2023-04-15T07:32:43;42.73;;;20.90;;
79693;SDS011;69165;52.714;13.200;2023-04-15T07:34:45;48.63;;;21.03;;
79693;SDS011;69165;52.714;13.200;2023-04-15T07:36:48;34.93;;;19.17;;
79693;SDS011;69165;52.714;13.200;2023-04-15T07:38:50;38.37;;;20.13;;
79693;SDS011;69165;52.714;13.200;2023-04-15T07:40:52;44.00;;;20.40;;
79693;SDS011;69165;52.714;13.200;2023-04-15T07:42:55;41.57;;;20.60;;
79693;SDS011;69165;52.714;13.200;2023-04-15T07:44:56;45.23;;;20.67;;
79693;SDS011;69165;52.714;13.200;2023-04-15T07:46:59;38.20;;;19.60;;
79693;SDS011;69165;52.714;13.200;2023-04-15T07:49:00;47.53;;;19.97;;
79693;SDS011;69165;52.714;13.200;2023-04-15T07:51:03;36.10;;;19.90;;
79693;SDS011;69165;52.714;13.200;2023-04-15T07:53:05;42.80;;;20.60;;
79693;SDS011;69165;52.714;13.200;2023-04-15T07:55:07;37.47;;;17.90;;
79693;SDS011;69165;52.714;13.200;2023-04-15T07:57:09;52.63;;;20.43;;
79693;SDS011;69165;52.714;13.200;2023-04-15T07:59:10;41.37;;;20.20;;
79693;SDS011;69165;52.714;13.200;2023-04-15T08:01:12;39.00;;;20.00;;
79693;SDS011;69165;52.714;13.200;2023-04-15T08:03:14;41.00;;;19.13;;
79693;SDS011;69165;52.714;13.200;2023-04-15T08:05:16;41.87;;;22.13;;
79693;SDS011;69165;52.714;13.200;2023-04-15T08:07:18;44.67;;;20.80;;
79693;SDS011;69165;52.714;13.200;2023-04-15T08:09:19;39.50;;;21.00;;
79693;SDS011;69165;52.714;13.200;2023-04-15T08:11:21;36.60;;;20.27;;
79693;SDS011;69165;52.714;13.200;2023-04-15T08:13:23;43.57;;;21.73;;
79693;SDS011;69165;52.714;13.200;2023-04-15T08:15:25;39.17;;;20.90;;
79693;SDS011;69165;52.714;13.200;2023-04-15T08:17:26;35.90;;;19.97;;
79693;SDS011;69165;52.714;13.200;2023-04-15T08:19:28;32.90;;;18.40;;
79693;SDS011;69165;52.714;13.200;2023-04-15T08:21:31;37.90;;;19.73;;
79693;SDS011;69165;52.714;13.200;2023-04-15T08:23:32;42.80;;;22.33;;
79693;SDS011;69165;52.714;13.200;2023-04-15T08:25:34;42.43;;;19.80;;
79693;SDS011;69165;52.714;13.200;2023-04-15T08:27:36;47.13;;;18.63;;
79693;SDS011;69165;52.714;13.200;2023-04-15T08:29:38;37.27;;;20.40;;
79693;SDS011;69165;52.714;13.200;2023-04-15T08:31:40;36.37;;;20.47;;
79693;SDS011;69165;52.714;13.200;2023-04-15T08:33:42;33.70;;;19.60;;
79693;SDS011;69165;52.714;13.200;2023-04-15T08:35:43;36.80;;;19.83;;
79693;SDS011;69165;52.714;13.200;2023-04-15T08:37:45;41.40;;;20.10;;
79693;SDS011;69165;52.714;13.200;2023-04-15T08:39:47;46.07;;;21.80;;
79693;SDS011;69165;52.714;13.200;2023-04-15T08:41:54;42.33;;;20.97;;
79693;SDS011;69165;52.714;13.200;2023-04-15T08:43:53;44.63;;;18.17;;
79693;SDS011;69165;52.714;13.200;2023-04-15T08:45:58;38.93;;;20.53;;
79693;SDS011;69165;52.714;13.200;2023-04-15T08:47:59;39.23;;;19.00;;
79693;SDS011;69165;52.714;13.200;2023-04-15T08:50:01;38.33;;;20.50;;
79693;SDS011;69165;52.714;13.200;2023-04-15T08:52:02;37.10;;;20.60;;
79693;SDS011;69165;52.714;13.200;2023-04-15T08:54:04;38.73;;;19.90;;
79693;SDS011;69165;52.714;13.200;2023-04-15T08:56:06;39.40;;;20.00;;
79693;SDS011;69165;52.714;13.200;2023-04-15T08:58:07;32.27;;;18.73;;
79693;SDS011;69165;52.714;13.200;2023-04-15T09:00:09;35.90;;;19.40;;
79693;SDS011;69165;52.714;13.200;2023-04-15T09:02:12;38.70;;;20.40;;
79693;SDS011;69165;52.714;13.200;2023-04-15T09:04:14;64.43;;;21.07;;
79693;SDS011;69165;52.714;13.200;2023-04-15T09:06:16;34.60;;;19.30;;
79693;SDS011;69165;52.714;13.200;2023-04-15T09:08:17;37.13;;;18.80;;
79693;SDS011;69165;52.714;13.200;2023-04-15T09:10:20;31.63;;;17.97;;
79693;SDS011;69165;52.714;13.200;2023-04-15T09:12:22;35.20;;;19.57;;
79693;SDS011;69165;52.714;13.200;2023-04-15T09:14:24;40.63;;;19.33;;
79693;SDS011;69165;52.714;13.200;2023-04-15T09:16:26;34.60;;;18.93;;
79693;SDS011;69165;52.714;13.200;2023-04-15T09:18:29;36.27;;;19.03;;
79693;SDS011;69165;52.714;13.200;2023-04-15T09:20:38;34.90;;;18.63;;
79693;SDS011;69165;52.714;13.200;2023-04-15T09:22:32;33.33;;;19.37;;
79693;SDS011;69165;52.714;13.200;2023-04-15T09:24:36;41.20;;;18.57;;
79693;SDS011;69165;52.714;13.200;2023-04-15T09:26:37;39.43;;;18.23;;
79693;SDS011;69165;52.714;13.200;2023-04-15T09:28:40;39.80;;;19.97;;
79693;SDS011;69165;52.714;13.200;2023-04-15T09:30:42;32.97;;;18.80;;
79693;SDS011;69165;52.714;13.200;2023-04-15T09:32:48;38.20;;;18.40;;
79693;SDS011;69165;52.714;13.200;2023-04-15T09:34:50;35.63;;;19.13;;
79693;SDS011;69165;52.714;13.200;2023-04-15T09:36:53;42.50;;;18.90;;
79693;SDS011;69165;52.714;13.200;2023-04-15T09:38:55;34.57;;;19.63;;
79693;SDS011;69165;52.714;13.200;2023-04-15T09:40:57;36.70;;;18.37;;
79693;SDS011;69165;52.714;13.200;2023-04-15T09:42:59;40.23;;;20.03;;
79693;SDS011;69165;52.714;13.200;2023-04-15T09:45:07;38.03;;;19.50;;
79693;SDS011;69165;52.714;13.200;2023-04-15T09:47:09;93.83;;;44.30;;
79693;SDS011;69165;52.714;13.200;2023-04-15T09:49:11;87.87;;;45.83;;
79693;SDS011;69165;52.714;13.200;2023-04-15T09:51:14;41.20;;;25.40;;
79693;SDS011;69165;52.714;13.200;2023-04-15T09:53:20;67.37;;;39.27;;
79693;SDS011;69165;52.714;13.200;2023-04-15T09:55:20;46.13;;;25.77;;
79693;SDS011;69165;52.714;13.200;2023-04-15T09:57:22;36.10;;;20.20;;
79693;SDS011;69165;52.714;13.200;2023-04-15T09:59:25;31.73;;;17.57;;
79693;SDS011;69165;52.714;13.200;2023-04-15T10:01:27;31.90;;;17.53;;
79693;SDS011;69165;52.714;13.200;2023-04-15T10:03:29;52.63;;;19.43;;
79693;SDS011;69165;52.714;13.200;2023-04-15T10:05:31;37.27;;;20.37;;
79693;SDS011;69165;52.714;13.200;2023-04-15T10:07:32;29.50;;;17.00;;
79693;SDS011;69165;52.714;13.200;2023-04-15T10:09:35;36.23;;;19.00;;
79693;SDS011;69165;52.714;13.200;2023-04-15T10:11:37;43.40;;;22.80;;
79693;SDS011;69165;52.714;13.200;2023-04-15T10:13:39;44.47;;;24.07;;
79693;SDS011;69165;52.714;13.200;2023-04-15T10:15:42;45.63;;;26.30;;
79693;SDS011;69165;52.714;13.200;2023-04-15T10:17:43;47.77;;;26.93;;
79693;SDS011;69165;52.714;13.200;2023-04-15T10:19:45;42.40;;;21.37;;
79693;SDS011;69165;52.714;13.200;2023-04-15T10:21:48;37.87;;;19.10;;
79693;SDS011;69165;52.714;13.200;2023-04-15T10:23:50;30.73;;;17.30;;
79693;SDS011;69165;52.714;13.200;2023-04-15T10:25:53;30.33;;;18.63;;
79693;SDS011;69165;52.714;13.200;2023-04-15T10:27:54;31.37;;;17.70;;
79693;SDS011;69165;52.714;13.200;2023-04-15T10:29:56;34.53;;;17.60;;
79693;SDS011;69165;52.714;13.200;2023-04-15T10:31:58;40.87;;;20.47;;
79693;SDS011;69165;52.714;13.200;2023-04-15T10:34:00;32.90;;;18.43;;
79693;SDS011;69165;52.714;13.200;2023-04-15T10:36:03;32.57;;;18.50;;
79693;SDS011;69165;52.714;13.200;2023-04-15T10:38:30;35.77;;;18.63;;
79693;SDS011;69165;52.714;13.200;2023-04-15T10:40:27;33.33;;;17.20;;
79693;SDS011;69165;52.714;13.200;2023-04-15T10:42:33;35.03;;;18.70;;
79693;SDS011;69165;52.714;13.200;2023-04-15T10:44:35;42.93;;;21.40;;
79693;SDS011;69165;52.714;13.200;2023-04-15T10:46:38;47.80;;;21.03;;
79693;SDS011;69165;52.714;13.200;2023-04-15T10:48:45;36.80;;;18.97;;
79693;SDS011;69165;52.714;13.200;2023-04-15T10:50:42;40.20;;;19.80;;
79693;SDS011;69165;52.714;13.200;2023-04-15T10:52:44;35.80;;;19.73;;
79693;SDS011;69165;52.714;13.200;2023-04-15T10:54:47;34.73;;;20.10;;
79693;SDS011;69165;52.714;13.200;2023-04-15T10:56:51;37.20;;;18.50;;
79693;SDS011;69165;52.714;13.200;2023-04-15T10:58:52;34.20;;;19.03;;
79693;SDS011;69165;52.714;13.200;2023-04-15T11:00:54;38.33;;;20.67;;
79693;SDS011;69165;52.714;13.200;2023-04-15T11:02:57;43.83;;;23.47;;
79693;SDS011;69165;52.714;13.200;2023-04-15T11:04:59;50.23;;;22.17;;
79693;SDS011;69165;52.714;13.200;2023-04-15T11:07:04;41.73;;;20.47;;
79693;SDS011;69165;52.714;13.200;2023-04-15T11:09:06;43.83;;;20.97;;
79693;SDS011;69165;52.714;13.200;2023-04-15T11:11:07;34.83;;;19.37;;
79693;SDS011;69165;52.714;13.200;2023-04-15T11:13:17;44.83;;;22.17;;
79693;SDS011;69165;52.714;13.200;2023-04-15T11:15:24;44.13;;;19.70;;
79693;SDS011;69165;52.714;13.200;2023-04-15T11:17:32;46.57;;;21.53;;
79693;SDS011;69165;52.714;13.200;2023-04-15T11:19:35;46.17;;;26.63;;
79693;SDS011;69165;52.714;13.200;2023-04-15T11:21:36;55.07;;;28.33;;
79693;SDS011;69165;52.714;13.200;2023-04-15T11:23:39;65.23;;;29.00;;
79693;SDS011;69165;52.714;13.200;2023-04-15T11:25:40;39.47;;;21.07;;
79693;SDS011;69165;52.714;13.200;2023-04-15T11:27:42;36.20;;;20.37;;
79693;SDS011;69165;52.714;13.200;2023-04-15T11:29:44;34.83;;;19.53;;
79693;SDS011;69165;52.714;13.200;2023-04-15T11:31:46;39.03;;;20.60;;
79693;SDS011;69165;52.714;13.200;2023-04-15T11:33:53;40.00;;;18.50;;
79693;SDS011;69165;52.714;13.200;2023-04-15T11:35:53;51.27;;;21.60;;
79693;SDS011;69165;52.714;13.200;2023-04-15T11:37:55;43.80;;;22.37;;
79693;SDS011;69165;52.714;13.200;2023-04-15T11:39:57;70.37;;;38.33;;
79693;SDS011;69165;52.714;13.200;2023-04-15T11:41:58;51.43;;;25.13;;
79693;SDS011;69165;52.714;13.200;2023-04-15T11:44:00;62.93;;;33.43;;
79693;SDS011;69165;52.714;13.200;2023-04-15T11:46:02;42.57;;;21.57;;
79693;SDS011;69165;52.714;13.200;2023-04-15T11:48:04;60.77;;;31.20;;
79693;SDS011;69165;52.714;13.200;2023-04-15T11:50:20;40.90;;;20.70;;
79693;SDS011;69165;52.714;13.200;2023-04-15T11:52:23;44.80;;;22.30;;
79693;SDS011;69165;52.714;13.200;2023-04-15T11:54:26;38.93;;;21.33;;
79693;SDS011;69165;52.714;13.200;2023-04-15T11:56:27;47.03;;;22.03;;
79693;SDS011;69165;52.714;13.200;2023-04-15T11:58:29;45.67;;;22.37;;
79693;SDS011;69165;52.714;13.200;2023-04-15T12:00:31;48.87;;;23.83;;
79693;SDS011;69165;52.714;13.200;2023-04-15T12:02:35;46.60;;;22.70;;
79693;SDS011;69165;52.714;13.200;2023-04-15T12:06:32;36.77;;;21.57;;
79693;SDS011;69165;52.714;13.200;2023-04-15T12:10:48;40.60;;;20.80;;
79693;SDS011;69165;52.714;13.200;2023-04-15T12:12:51;38.57;;;22.43;;
79693;SDS011;69165;52.714;13.200;2023-04-15T12:14:55;49.20;;;23.20;;
79693;SDS011;69165;52.714;13.200;2023-04-15T12:17:00;46.00;;;22.23;;
79693;SDS011;69165;52.714;13.200;2023-04-15T12:19:03;44.53;;;23.47;;
79693;SDS011;69165;52.714;13.200;2023-04-15T12:21:11;46.20;;;21.87;;
79693;SDS011;69165;52.714;13.200;2023-04-15T12:23:13;44.03;;;22.70;;
79693;SDS011;69165;52.714;13.200;2023-04-15T12:25:16;62.27;;;35.03;;
79693;SDS011;69165;52.714;13.200;2023-04-15T12:27:18;44.17;;;22.33;;
79693;SDS011;69165;52.714;13.200;2023-04-15T12:29:23;41.33;;;22.10;;
79693;SDS011;69165;52.714;13.200;2023-04-15T12:31:21;44.43;;;23.57;;
79693;SDS011;69165;52.714;13.200;2023-04-15T12:33:31;48.07;;;25.70;;
79693;SDS011;69165;52.714;13.200;2023-04-15T12:35:25;36.90;;;20.63;;
79693;SDS011;69165;52.714;13.200;2023-04-15T12:37:27;42.93;;;24.37;;
79693;SDS011;69165;52.714;13.200;2023-04-15T12:39:30;57.57;;;31.03;;
79693;SDS011;69165;52.714;13.200;2023-04-15T12:41:30;72.70;;;35.60;;
79693;SDS011;69165;52.714;13.200;2023-04-15T12:43:32;63.73;;;30.77;;
79693;SDS011;69165;52.714;13.200;2023-04-15T12:45:35;46.50;;;23.63;;
79693;SDS011;69165;52.714;13.200;2023-04-15T12:47:37;47.37;;;26.77;;
79693;SDS011;69165;52.714;13.200;2023-04-15T12:49:39;48.40;;;25.70;;
79693;SDS011;69165;52.714;13.200;2023-04-15T12:51:41;43.03;;;25.27;;
79693;SDS011;69165;52.714;13.200;2023-04-15T12:53:43;41.13;;;21.83;;
79693;SDS011;69165;52.714;13.200;2023-04-15T12:55:45;44.20;;;21.27;;
79693;SDS011;69165;52.714;13.200;2023-04-15T12:57:47;45.43;;;20.80;;
79693;SDS011;69165;52.714;13.200;2023-04-15T12:59:49;60.13;;;33.60;;
79693;SDS011;69165;52.714;13.200;2023-04-15T13:01:51;48.97;;;24.43;;
79693;SDS011;69165;52.714;13.200;2023-04-15T13:03:53;45.53;;;22.30;;
79693;SDS011;69165;52.714;13.200;2023-04-15T13:05:55;36.83;;;19.93;;
79693;SDS011;69165;52.714;13.200;2023-04-15T13:07:56;39.60;;;23.50;;
79693;SDS011;69165;52.714;13.200;2023-04-15T13:09:59;41.37;;;22.77;;
79693;SDS011;69165;52.714;13.200;2023-04-15T13:12:00;36.90;;;20.97;;
79693;SDS011;69165;52.714;13.200;2023-04-15T13:14:03;35.77;;;21.80;;
79693;SDS011;69165;52.714;13.200;2023-04-15T13:16:04;44.60;;;21.70;;
79693;SDS011;69165;52.714;13.200;2023-04-15T13:18:06;41.67;;;21.10;;
79693;SDS011;69165;52.714;13.200;2023-04-15T13:20:08;44.73;;;20.00;;
79693;SDS011;69165;52.714;13.200;2023-04-15T13:22:10;44.97;;;25.17;;
79693;SDS011;69165;52.714;13.200;2023-04-15T13:24:12;43.70;;;24.30;;
79693;SDS011;69165;52.714;13.200;2023-04-15T13:26:13;48.30;;;25.20;;
79693;SDS011;69165;52.714;13.200;2023-04-15T13:28:15;42.10;;;23.20;;
79693;SDS011;69165;52.714;13.200;2023-04-15T13:30:16;40.63;;;20.67;;
79693;SDS011;69165;52.714;13.200;2023-04-15T13:32:18;40.83;;;23.60;;
79693;SDS011;69165;52.714;13.200;2023-04-15T13:34:20;41.67;;;20.80;;
79693;SDS011;69165;52.714;13.200;2023-04-15T13:36:22;55.03;;;24.67;;
79693;SDS011;69165;52.714;13.200;2023-04-15T13:38:24;46.43;;;22.13;;
79693;SDS011;69165;52.714;13.200;2023-04-15T13:40:26;34.13;;;19.83;;
79693;SDS011;69165;52.714;13.200;2023-04-15T13:42:28;44.23;;;23.00;;
79693;SDS011;69165;52.714;13.200;2023-04-15T13:44:30;37.90;;;21.07;;
79693;SDS011;69165;52.714;13.200;2023-04-15T13:46:32;39.97;;;21.97;;
79693;SDS011;69165;52.714;13.200;2023-04-15T13:48:34;38.73;;;21.37;;
79693;SDS011;69165;52.714;13.200;2023-04-15T13:50:36;45.53;;;19.17;;
79693;SDS011;69165;52.714;13.200;2023-04-15T13:52:38;35.53;;;19.60;;
79693;SDS011;69165;52.714;13.200;2023-04-15T13:54:40;36.10;;;20.03;;
79693;SDS011;69165;52.714;13.200;2023-04-15T13:56:42;32.77;;;18.43;;
79693;SDS011;69165;52.714;13.200;2023-04-15T13:58:44;38.43;;;20.87;;
79693;SDS011;69165;52.714;13.200;2023-04-15T14:00:47;33.80;;;18.57;;
79693;SDS011;69165;52.714;13.200;2023-04-15T14:02:48;43.17;;;22.33;;
79693;SDS011;69165;52.714;13.200;2023-04-15T14:04:50;51.03;;;26.27;;
79693;SDS011;69165;52.714;13.200;2023-04-15T14:06:52;86.13;;;44.63;;
79693;SDS011;69165;52.714;13.200;2023-04-15T14:08:54;61.10;;;32.30;;
79693;SDS011;69165;52.714;13.200;2023-04-15T14:10:56;55.60;;;25.73;;
79693;SDS011;69165;52.714;13.200;2023-04-15T14:12:57;34.83;;;19.57;;
79693;SDS011;69165;52.714;13.200;2023-04-15T14:15:00;41.83;;;22.30;;
79693;SDS011;69165;52.714;13.200;2023-04-15T14:17:03;44.33;;;23.00;;
79693;SDS011;69165;52.714;13.200;2023-04-15T14:19:04;36.83;;;21.13;;
79693;SDS011;69165;52.714;13.200;2023-04-15T14:21:07;36.40;;;21.77;;
79693;SDS011;69165;52.714;13.200;2023-04-15T14:23:09;34.50;;;20.20;;
79693;SDS011;69165;52.714;13.200;2023-04-15T14:25:11;34.80;;;19.60;;
79693;SDS011;69165;52.714;13.200;2023-04-15T14:27:13;35.93;;;20.73;;
79693;SDS011;69165;52.714;13.200;2023-04-15T14:29:15;44.13;;;22.37;;
79693;SDS011;69165;52.714;13.200;2023-04-15T14:31:17;44.00;;;19.50;;
79693;SDS011;69165;52.714;13.200;2023-04-15T14:33:19;44.20;;;21.93;;
79693;SDS011;69165;52.714;13.200;2023-04-15T14:35:20;38.83;;;21.60;;
79693;SDS011;69165;52.714;13.200;2023-04-15T14:37:22;32.10;;;18.47;;
79693;SDS011;69165;52.714;13.200;2023-04-15T14:39:24;31.07;;;18.40;;
79693;SDS011;69165;52.714;13.200;2023-04-15T14:41:25;33.73;;;20.30;;
79693;SDS011;69165;52.714;13.200;2023-04-15T14:43:27;44.20;;;19.43;;
79693;SDS011;69165;52.714;13.200;2023-04-15T14:45:28;34.90;;;20.60;;
79693;SDS011;69165;52.714;13.200;2023-04-15T14:47:30;34.10;;;20.10;;
79693;SDS011;69165;52.714;13.200;2023-04-15T14:49:32;39.23;;;21.37;;
79693;SDS011;69165;52.714;13.200;2023-04-15T14:51:35;35.30;;;19.27;;
79693;SDS011;69165;52.714;13.200;2023-04-15T14:53:36;39.70;;;19.57;;
79693;SDS011;69165;52.714;13.200;2023-04-15T14:55:38;42.33;;;21.47;;
79693;SDS011;69165;52.714;13.200;2023-04-15T14:57:40;41.53;;;21.47;;
79693;SDS011;69165;52.714;13.200;2023-04-15T14:59:41;46.97;;;21.97;;
79693;SDS011;69165;52.714;13.200;2023-04-15T15:01:43;42.97;;;20.40;;
79693;SDS011;69165;52.714;13.200;2023-04-15T15:03:44;52.90;;;21.70;;
79693;SDS011;69165;52.714;13.200;2023-04-15T15:05:47;38.10;;;20.50;;
79693;SDS011;69165;52.714;13.200;2023-04-15T15:07:49;39.77;;;20.67;;
79693;SDS011;69165;52.714;13.200;2023-04-15T15:09:52;43.80;;;22.70;;
79693;SDS011;69165;52.714;13.200;2023-04-15T15:11:53;35.37;;;19.27;;
79693;SDS011;69165;52.714;13.200;2023-04-15T15:13:55;39.13;;;21.27;;
79693;SDS011;69165;52.714;13.200;2023-04-15T15:15:56;41.57;;;21.63;;
79693;SDS011;69165;52.714;13.200;2023-04-15T15:17:58;46.97;;;24.93;;
79693;SDS011;69165;52.714;13.200;2023-04-15T15:20:00;35.97;;;20.37;;
79693;SDS011;69165;52.714;13.200;2023-04-15T15:22:02;37.20;;;21.13;;
79693;SDS011;69165;52.714;13.200;2023-04-15T15:24:04;40.57;;;21.27;;
79693;SDS011;69165;52.714;13.200;2023-04-15T15:26:06;40.87;;;22.47;;
79693;SDS011;69165;52.714;13.200;2023-04-15T15:28:08;43.77;;;22.53;;
79693;SDS011;69165;52.714;13.200;2023-04-15T15:30:11;36.63;;;21.43;;
79693;SDS011;69165;52.714;13.200;2023-04-15T15:32:13;43.13;;;20.47;;
79693;SDS011;69165;52.714;13.200;2023-04-15T15:34:15;36.77;;;20.23;;
79693;SDS011;69165;52.714;13.200;2023-04-15T15:36:17;41.37;;;21.33;;
79693;SDS011;69165;52.714;13.200;2023-04-15T15:38:20;33.47;;;20.20;;
79693;SDS011;69165;52.714;13.200;2023-04-15T15:40:22;39.03;;;21.20;;
79693;SDS011;69165;52.714;13.200;2023-04-15T15:42:24;60.07;;;22.60;;
79693;SDS011;69165;52.714;13.200;2023-04-15T15:44:25;69.50;;;33.10;;
79693;SDS011;69165;52.714;13.200;2023-04-15T15:46:27;42.70;;;21.83;;
79693;SDS011;69165;52.714;13.200;2023-04-15T15:48:29;49.27;;;23.20;;
79693;SDS011;69165;52.714;13.200;2023-04-15T15:50:30;43.23;;;22.53;;
79693;SDS011;69165;52.714;13.200;2023-04-15T15:52:32;45.33;;;25.67;;
79693;SDS011;69165;52.714;13.200;2023-04-15T15:54:33;40.07;;;23.30;;
79693;SDS011;69165;52.714;13.200;2023-04-15T15:56:36;37.83;;;21.40;;
79693;SDS011;69165;52.714;13.200;2023-04-15T15:58:38;42.43;;;23.27;;
79693;SDS011;69165;52.714;13.200;2023-04-15T16:00:40;45.90;;;24.50;;
79693;SDS011;69165;52.714;13.200;2023-04-15T16:02:42;46.83;;;23.57;;
79693;SDS011;69165;52.714;13.200;2023-04-15T16:04:44;51.87;;;23.20;;
79693;SDS011;69165;52.714;13.200;2023-04-15T16:06:45;46.23;;;23.77;;
79693;SDS011;69165;52.714;13.200;2023-04-15T16:08:47;41.60;;;22.70;;
79693;SDS011;69165;52.714;13.200;2023-04-15T16:10:49;48.03;;;23.87;;
79693;SDS011;69165;52.714;13.200;2023-04-15T16:12:52;118.57;;;45.97;;
79693;SDS011;69165;52.714;13.200;2023-04-15T16:14:54;47.27;;;25.07;;
79693;SDS011;69165;52.714;13.200;2023-04-15T16:16:56;56.50;;;24.13;;
79693;SDS011;69165;52.714;13.200;2023-04-15T16:18:57;55.03;;;25.37;;
79693;SDS011;69165;52.714;13.200;2023-04-15T16:21:00;56.37;;;27.83;;
79693;SDS011;69165;52.714;13.200;2023-04-15T16:23:02;55.60;;;29.47;;
79693;SDS011;69165;52.714;13.200;2023-04-15T16:25:04;44.80;;;24.37;;
79693;SDS011;69165;52.714;13.200;2023-04-15T16:27:05;46.50;;;24.20;;
79693;SDS011;69165;52.714;13.200;2023-04-15T16:29:08;46.57;;;23.87;;
79693;SDS011;69165;52.714;13.200;2023-04-15T16:31:10;52.23;;;24.30;;
79693;SDS011;69165;52.714;13.200;2023-04-15T16:33:11;44.73;;;24.17;;
79693;SDS011;69165;52.714;13.200;2023-04-15T16:35:13;44.43;;;22.83;;
79693;SDS011;69165;52.714;13.200;2023-04-15T16:37:14;39.43;;;21.23;;
79693;SDS011;69165;52.714;13.200;2023-04-15T16:39:16;40.57;;;21.90;;
79693;SDS011;69165;52.714;13.200;2023-04-15T16:41:18;48.43;;;25.30;;
79693;SDS011;69165;52.714;13.200;2023-04-15T16:43:20;43.40;;;24.10;;
79693;SDS011;69165;52.714;13.200;2023-04-15T16:45:22;43.97;;;22.10;;
79693;SDS011;69165;52.714;13.200;2023-04-15T16:47:24;48.17;;;24.93;;
79693;SDS011;69165;52.714;13.200;2023-04-15T16:49:25;44.07;;;22.77;;
79693;SDS011;69165;52.714;13.200;2023-04-15T16:51:28;46.17;;;22.77;;